AAL308 KMIA-TXKF
Flight info
| Callsign | AAL308 |
|---|---|
| Flight time | 2h 14m |
| Altitude | 37000 |
| Route | FOLZZ3 ZFP DCT BAAGR DCT CNNOR/M077F370 M328 ANTIG POPOP1 |
| Aircraft | A319/M-SDE3FGHIRWY/LB1 |
Departure
| Time | 2026-04-23 15:23 |
|---|---|
| Airport | Miami International Airport (KMIA) |
Arrival
| Time | 2026-04-23 17:37 |
|---|---|
| Airport | L.F. Wade International Airport (TXKF) |
| Time | Latitude | Longitude | Altitude | Speed | Heading |
|---|---|---|---|---|---|
| 2026-04-23 15:01 | 25.79730 | -80.28407 | 15 ft | 0 kts | 338° |
| 2026-04-23 15:12 | 25.79728 | -80.28406 | 15 ft | 3 kts | 338° |
| 2026-04-23 15:12 | 25.79704 | -80.28394 | 15 ft | 4 kts | 328° |
| 2026-04-23 15:13 | 25.79683 | -80.28376 | 15 ft | 4 kts | 308° |
| 2026-04-23 15:13 | 25.79673 | -80.28353 | 16 ft | 2 kts | 268° |
| 2026-04-23 15:13 | 25.79673 | -80.28346 | 15 ft | 0 kts | 267° |
| 2026-04-23 15:16 | 25.79673 | -80.28352 | 16 ft | 2 kts | 267° |
| 2026-04-23 15:16 | 25.79672 | -80.28376 | 15 ft | 5 kts | 267° |
| 2026-04-23 15:16 | 25.79670 | -80.28432 | 15 ft | 10 kts | 268° |
| 2026-04-23 15:16 | 25.79665 | -80.28511 | 15 ft | 11 kts | 262° |
| 2026-04-23 15:17 | 25.79651 | -80.28596 | 15 ft | 12 kts | 265° |
| 2026-04-23 15:17 | 25.79645 | -80.28690 | 15 ft | 13 kts | 264° |
| 2026-04-23 15:17 | 25.79649 | -80.28788 | 17 ft | 13 kts | 297° |
| 2026-04-23 15:17 | 25.79735 | -80.28816 | 17 ft | 14 kts | 357° |
| 2026-04-23 15:18 | 25.79837 | -80.28822 | 15 ft | 15 kts | 357° |
| 2026-04-23 15:18 | 25.79946 | -80.28827 | 16 ft | 17 kts | 358° |
| 2026-04-23 15:18 | 25.80012 | -80.28905 | 16 ft | 17 kts | 267° |
| 2026-04-23 15:18 | 25.80006 | -80.29041 | 16 ft | 18 kts | 267° |
| 2026-04-23 15:19 | 25.80000 | -80.29185 | 16 ft | 19 kts | 267° |
| 2026-04-23 15:19 | 25.79994 | -80.29339 | 15 ft | 21 kts | 267° |
| 2026-04-23 15:19 | 25.79986 | -80.29508 | 14 ft | 23 kts | 267° |
| 2026-04-23 15:19 | 25.79979 | -80.29688 | 14 ft | 24 kts | 267° |
| 2026-04-23 15:20 | 25.79974 | -80.29808 | 14 ft | 23 kts | 267° |
| 2026-04-23 15:20 | 25.79973 | -80.29956 | 13 ft | 1 kts | 283° |
| 2026-04-23 15:20 | 25.79975 | -80.29961 | 13 ft | 0 kts | 285° |
| 2026-04-23 15:20 | 25.79976 | -80.29966 | 13 ft | 2 kts | 285° |
| 2026-04-23 15:21 | 25.79988 | -80.30007 | 13 ft | 8 kts | 292° |
| 2026-04-23 15:21 | 25.79992 | -80.30017 | 13 ft | 1 kts | 294° |
| 2026-04-23 15:21 | 25.80036 | -80.30043 | 13 ft | 12 kts | 1° |
| 2026-04-23 15:21 | 25.80078 | -80.29966 | 13 ft | 14 kts | 88° |
| 2026-04-23 15:22 | 25.80085 | -80.29782 | 14 ft | 47 kts | 87° |
| 2026-04-23 15:22 | 25.80108 | -80.29200 | 20 ft | 102 kts | 87° |
| 2026-04-23 15:22 | 25.80148 | -80.28218 | 15 ft | 152 kts | 88° |
| 2026-04-23 15:22 | 25.80208 | -80.26958 | 423 ft | 166 kts | 86° |
| 2026-04-23 15:23 | 25.80150 | -80.25688 | 1168 ft | 166 kts | 104° |
| 2026-04-23 15:23 | 25.79698 | -80.24497 | 1774 ft | 174 kts | 114° |
| 2026-04-23 15:23 | 25.79138 | -80.23218 | 2039 ft | 196 kts | 116° |
| 2026-04-23 15:23 | 25.78498 | -80.21779 | 2307 ft | 221 kts | 116° |
| 2026-04-23 15:24 | 25.77774 | -80.20166 | 2751 ft | 244 kts | 116° |
| 2026-04-23 15:24 | 25.77003 | -80.18456 | 3575 ft | 251 kts | 115° |
| 2026-04-23 15:24 | 25.76185 | -80.16704 | 4492 ft | 256 kts | 116° |
| 2026-04-23 15:24 | 25.75336 | -80.14970 | 4865 ft | 262 kts | 118° |
| 2026-04-23 15:25 | 25.74577 | -80.13134 | 4980 ft | 262 kts | 104° |
| 2026-04-23 15:25 | 25.74440 | -80.11141 | 5011 ft | 263 kts | 82° |
| 2026-04-23 15:25 | 25.74754 | -80.09815 | 5013 ft | 263 kts | 68° |
| 2026-04-23 15:25 | 25.76154 | -80.07633 | 5017 ft | 264 kts | 50° |
| 2026-04-23 15:26 | 25.77378 | -80.06103 | 5012 ft | 265 kts | 50° |
| 2026-04-23 15:26 | 25.78604 | -80.04554 | 5426 ft | 268 kts | 50° |
| 2026-04-23 15:26 | 25.79849 | -80.02973 | 6474 ft | 270 kts | 50° |
| 2026-04-23 15:26 | 25.81093 | -80.01392 | 7424 ft | 273 kts | 49° |
| 2026-04-23 15:27 | 25.82356 | -79.99789 | 8251 ft | 280 kts | 48° |
| 2026-04-23 15:27 | 25.83651 | -79.98143 | 9060 ft | 286 kts | 46° |
| 2026-04-23 15:27 | 25.84958 | -79.96481 | 9888 ft | 292 kts | 46° |
| 2026-04-23 15:27 | 25.86336 | -79.94734 | 10321 ft | 311 kts | 46° |
| 2026-04-23 15:28 | 25.87816 | -79.92859 | 10581 ft | 333 kts | 46° |
| 2026-04-23 15:28 | 25.89361 | -79.90895 | 11137 ft | 342 kts | 46° |
| 2026-04-23 15:28 | 25.90936 | -79.88888 | 11806 ft | 347 kts | 46° |
| 2026-04-23 15:28 | 25.92536 | -79.86847 | 12468 ft | 352 kts | 46° |
| 2026-04-23 15:29 | 25.94154 | -79.84782 | 13120 ft | 357 kts | 46° |
| 2026-04-23 15:29 | 25.95796 | -79.82690 | 13807 ft | 362 kts | 45° |
| 2026-04-23 15:29 | 25.97463 | -79.80569 | 14441 ft | 366 kts | 45° |
| 2026-04-23 15:29 | 25.99147 | -79.78427 | 15043 ft | 371 kts | 45° |
| 2026-04-23 15:30 | 26.00855 | -79.76249 | 15609 ft | 375 kts | 45° |
| 2026-04-23 15:30 | 26.02581 | -79.74048 | 16166 ft | 380 kts | 46° |
| 2026-04-23 15:30 | 26.04323 | -79.71826 | 16705 ft | 384 kts | 46° |
| 2026-04-23 15:30 | 26.06092 | -79.69564 | 17308 ft | 389 kts | 46° |
| 2026-04-23 15:31 | 26.07874 | -79.67282 | 17872 ft | 393 kts | 46° |
| 2026-04-23 15:31 | 26.09676 | -79.64973 | 18419 ft | 398 kts | 46° |
| 2026-04-23 15:31 | 26.11400 | -79.62529 | 18898 ft | 404 kts | 52° |
| 2026-04-23 15:31 | 26.12430 | -79.60897 | 19218 ft | 406 kts | 52° |
| 2026-04-23 15:32 | 26.13653 | -79.58965 | 19596 ft | 409 kts | 52° |
| 2026-04-23 15:32 | 26.15316 | -79.56343 | 20105 ft | 412 kts | 52° |
| 2026-04-23 15:32 | 26.16426 | -79.54598 | 20445 ft | 414 kts | 52° |
| 2026-04-23 15:32 | 26.18106 | -79.51954 | 20956 ft | 418 kts | 52° |
| 2026-04-23 15:33 | 26.20335 | -79.48437 | 21668 ft | 421 kts | 52° |
| 2026-04-23 15:33 | 26.21477 | -79.46635 | 22011 ft | 423 kts | 52° |
| 2026-04-23 15:33 | 26.23736 | -79.43073 | 22663 ft | 427 kts | 52° |
| 2026-04-23 15:33 | 26.25460 | -79.40359 | 23113 ft | 431 kts | 52° |
| 2026-04-23 15:34 | 26.26637 | -79.38503 | 23421 ft | 434 kts | 52° |
| 2026-04-23 15:34 | 26.28369 | -79.35728 | 23848 ft | 438 kts | 54° |
| 2026-04-23 15:34 | 26.29800 | -79.32759 | 24218 ft | 444 kts | 63° |
| 2026-04-23 15:34 | 26.31070 | -79.29617 | 24595 ft | 447 kts | 63° |
| 2026-04-23 15:35 | 26.32367 | -79.26441 | 24964 ft | 449 kts | 63° |
| 2026-04-23 15:35 | 26.33675 | -79.23260 | 25338 ft | 452 kts | 63° |
| 2026-04-23 15:35 | 26.34996 | -79.20062 | 25706 ft | 455 kts | 63° |
| 2026-04-23 15:35 | 26.36321 | -79.16852 | 26067 ft | 458 kts | 63° |
| 2026-04-23 15:36 | 26.37657 | -79.13610 | 26435 ft | 460 kts | 63° |
| 2026-04-23 15:36 | 26.39001 | -79.10342 | 26791 ft | 463 kts | 63° |
| 2026-04-23 15:36 | 26.40328 | -79.07103 | 27144 ft | 466 kts | 63° |
| 2026-04-23 15:36 | 26.41679 | -79.03797 | 27496 ft | 469 kts | 63° |
| 2026-04-23 15:37 | 26.43034 | -79.00478 | 27849 ft | 471 kts | 63° |
| 2026-04-23 15:37 | 26.44400 | -78.97140 | 28214 ft | 474 kts | 63° |
| 2026-04-23 15:37 | 26.45776 | -78.93781 | 28627 ft | 475 kts | 63° |
| 2026-04-23 15:37 | 26.47150 | -78.90424 | 28993 ft | 477 kts | 63° |
| 2026-04-23 15:38 | 26.48528 | -78.87046 | 29336 ft | 479 kts | 63° |
| 2026-04-23 15:38 | 26.49909 | -78.83646 | 29654 ft | 482 kts | 63° |
| 2026-04-23 15:38 | 26.51294 | -78.80229 | 29971 ft | 485 kts | 63° |
| 2026-04-23 15:38 | 26.52689 | -78.76789 | 30272 ft | 487 kts | 63° |
| 2026-04-23 15:39 | 26.54089 | -78.73335 | 30533 ft | 490 kts | 64° |
| 2026-04-23 15:39 | 26.55294 | -78.69752 | 30776 ft | 494 kts | 72° |
| 2026-04-23 15:39 | 26.56029 | -78.65996 | 31011 ft | 498 kts | 81° |
| 2026-04-23 15:39 | 26.56513 | -78.62154 | 31235 ft | 501 kts | 81° |
| 2026-04-23 15:40 | 26.56996 | -78.58327 | 31468 ft | 504 kts | 81° |
| 2026-04-23 15:40 | 26.57492 | -78.54433 | 31700 ft | 506 kts | 81° |
| 2026-04-23 15:40 | 26.57989 | -78.50549 | 32040 ft | 506 kts | 81° |
| 2026-04-23 15:40 | 26.58488 | -78.46643 | 32362 ft | 506 kts | 81° |
| 2026-04-23 15:41 | 26.58983 | -78.42756 | 32676 ft | 507 kts | 81° |
| 2026-04-23 15:41 | 26.59477 | -78.38835 | 32986 ft | 508 kts | 82° |
| 2026-04-23 15:41 | 26.59969 | -78.34927 | 33294 ft | 509 kts | 82° |
| 2026-04-23 15:41 | 26.60461 | -78.31023 | 33610 ft | 509 kts | 82° |
| 2026-04-23 15:42 | 26.60954 | -78.27095 | 33937 ft | 510 kts | 82° |
| 2026-04-23 15:42 | 26.61446 | -78.23164 | 34230 ft | 511 kts | 82° |
| 2026-04-23 15:42 | 26.61935 | -78.19239 | 34513 ft | 511 kts | 82° |
| 2026-04-23 15:42 | 26.62425 | -78.15291 | 34813 ft | 511 kts | 82° |
| 2026-04-23 15:43 | 26.62914 | -78.11369 | 35105 ft | 511 kts | 82° |
| 2026-04-23 15:43 | 26.63407 | -78.07414 | 35396 ft | 511 kts | 82° |
| 2026-04-23 15:43 | 26.63895 | -78.03493 | 35678 ft | 511 kts | 82° |
| 2026-04-23 15:43 | 26.64375 | -77.99603 | 35962 ft | 510 kts | 82° |
| 2026-04-23 15:44 | 26.64865 | -77.95614 | 36230 ft | 510 kts | 82° |
| 2026-04-23 15:44 | 26.65338 | -77.91741 | 36478 ft | 511 kts | 82° |
| 2026-04-23 15:44 | 26.65817 | -77.87799 | 36789 ft | 510 kts | 82° |
| 2026-04-23 15:44 | 26.66291 | -77.83889 | 37079 ft | 509 kts | 82° |
| 2026-04-23 15:45 | 26.66768 | -77.79960 | 37168 ft | 508 kts | 82° |
| 2026-04-23 15:45 | 26.67724 | -77.72125 | 37177 ft | 507 kts | 81° |
| 2026-04-23 15:46 | 26.68677 | -77.64300 | 37177 ft | 507 kts | 82° |
| 2026-04-23 15:46 | 26.69613 | -77.56520 | 37180 ft | 508 kts | 82° |
| 2026-04-23 15:47 | 26.70549 | -77.48686 | 37179 ft | 508 kts | 82° |
| 2026-04-23 15:47 | 26.71486 | -77.40842 | 37180 ft | 508 kts | 82° |
| 2026-04-23 15:48 | 26.72424 | -77.32996 | 37181 ft | 508 kts | 82° |
| 2026-04-23 15:48 | 26.73342 | -77.25201 | 37181 ft | 508 kts | 82° |
| 2026-04-23 15:49 | 26.74258 | -77.17340 | 37172 ft | 508 kts | 82° |
| 2026-04-23 15:49 | 26.75174 | -77.09481 | 37171 ft | 509 kts | 82° |
| 2026-04-23 15:50 | 26.76100 | -77.01614 | 37168 ft | 509 kts | 82° |
| 2026-04-23 15:50 | 26.77012 | -76.93802 | 37170 ft | 509 kts | 82° |
| 2026-04-23 15:51 | 26.77924 | -76.85913 | 37171 ft | 510 kts | 83° |
| 2026-04-23 15:51 | 26.78822 | -76.78038 | 37163 ft | 510 kts | 83° |
| 2026-04-23 15:52 | 26.79715 | -76.70190 | 37164 ft | 511 kts | 83° |
| 2026-04-23 15:52 | 26.80609 | -76.62307 | 37166 ft | 511 kts | 83° |
| 2026-04-23 15:53 | 26.81826 | -76.54460 | 37169 ft | 510 kts | 71° |
| 2026-04-23 15:53 | 26.84767 | -76.47290 | 37196 ft | 502 kts | 52° |
| 2026-04-23 15:54 | 26.88707 | -76.40892 | 37188 ft | 501 kts | 51° |
| 2026-04-23 15:54 | 26.92649 | -76.34424 | 37186 ft | 502 kts | 52° |
| 2026-04-23 15:55 | 26.96579 | -76.27957 | 37183 ft | 502 kts | 52° |
| 2026-04-23 15:55 | 27.00515 | -76.21483 | 37181 ft | 502 kts | 52° |
| 2026-04-23 15:56 | 27.04456 | -76.15006 | 37181 ft | 502 kts | 52° |
| 2026-04-23 15:56 | 27.08391 | -76.08535 | 37164 ft | 503 kts | 52° |
| 2026-04-23 15:57 | 27.12312 | -76.02085 | 37161 ft | 503 kts | 52° |
| 2026-04-23 15:57 | 27.16253 | -75.95567 | 37163 ft | 504 kts | 52° |
| 2026-04-23 15:58 | 27.20204 | -75.89032 | 37168 ft | 504 kts | 52° |
| 2026-04-23 15:58 | 27.24147 | -75.82508 | 37171 ft | 505 kts | 52° |
| 2026-04-23 15:59 | 27.28065 | -75.76014 | 37171 ft | 505 kts | 52° |
| 2026-04-23 15:59 | 27.32006 | -75.69467 | 37172 ft | 506 kts | 52° |
| 2026-04-23 16:00 | 27.35957 | -75.62900 | 37207 ft | 504 kts | 52° |
| 2026-04-23 16:00 | 27.39884 | -75.56376 | 37207 ft | 502 kts | 52° |
| 2026-04-23 16:01 | 27.43793 | -75.49844 | 37205 ft | 501 kts | 52° |
| 2026-04-23 16:01 | 27.47695 | -75.43326 | 37199 ft | 501 kts | 52° |
| 2026-04-23 16:02 | 27.51568 | -75.36862 | 37183 ft | 501 kts | 52° |
| 2026-04-23 16:02 | 27.55456 | -75.30339 | 37189 ft | 501 kts | 52° |
| 2026-04-23 16:03 | 27.59347 | -75.23800 | 37216 ft | 501 kts | 52° |
| 2026-04-23 16:03 | 27.63223 | -75.17289 | 37216 ft | 499 kts | 52° |
| 2026-04-23 16:04 | 27.67070 | -75.10821 | 37211 ft | 497 kts | 52° |
| 2026-04-23 16:04 | 27.70924 | -75.04330 | 37196 ft | 497 kts | 52° |
| 2026-04-23 16:05 | 27.74116 | -74.98948 | 37180 ft | 497 kts | 52° |
| 2026-04-23 16:05 | 27.78617 | -74.91351 | 37178 ft | 498 kts | 52° |
| 2026-04-23 16:06 | 27.82462 | -74.84826 | 37225 ft | 498 kts | 52° |
| 2026-04-23 16:06 | 27.86264 | -74.78338 | 37219 ft | 497 kts | 52° |
| 2026-04-23 16:07 | 27.90067 | -74.71826 | 37214 ft | 496 kts | 52° |
| 2026-04-23 16:07 | 27.93849 | -74.65319 | 37207 ft | 495 kts | 53° |
| 2026-04-23 16:08 | 27.97610 | -74.58837 | 37208 ft | 494 kts | 53° |
| 2026-04-23 16:08 | 28.01388 | -74.52344 | 37205 ft | 494 kts | 52° |
| 2026-04-23 16:09 | 28.05179 | -74.45831 | 37200 ft | 494 kts | 52° |
| 2026-04-23 16:09 | 28.08959 | -74.39308 | 37223 ft | 493 kts | 53° |
| 2026-04-23 16:10 | 28.12687 | -74.32839 | 37212 ft | 492 kts | 53° |
| 2026-04-23 16:10 | 28.16439 | -74.26334 | 37198 ft | 493 kts | 53° |
| 2026-04-23 16:11 | 28.20190 | -74.19821 | 37194 ft | 493 kts | 53° |
| 2026-04-23 16:11 | 28.23919 | -74.13346 | 37196 ft | 493 kts | 53° |
| 2026-04-23 16:12 | 28.27666 | -74.06822 | 37195 ft | 493 kts | 53° |
| 2026-04-23 16:12 | 28.31418 | -74.00286 | 37227 ft | 492 kts | 53° |
| 2026-04-23 16:13 | 28.35132 | -73.93810 | 37215 ft | 491 kts | 53° |
| 2026-04-23 16:13 | 28.40711 | -73.84048 | 37203 ft | 490 kts | 53° |
| 2026-04-23 16:14 | 28.43815 | -73.78620 | 37200 ft | 490 kts | 53° |
| 2026-04-23 16:14 | 28.47520 | -73.72122 | 37210 ft | 490 kts | 53° |
| 2026-04-23 16:15 | 28.51220 | -73.65602 | 37206 ft | 490 kts | 53° |
| 2026-04-23 16:15 | 28.54903 | -73.59102 | 37244 ft | 490 kts | 53° |
| 2026-04-23 16:16 | 28.58608 | -73.52584 | 37227 ft | 488 kts | 53° |
| 2026-04-23 16:16 | 28.62277 | -73.46112 | 37223 ft | 487 kts | 53° |
| 2026-04-23 16:17 | 28.65945 | -73.39624 | 37218 ft | 487 kts | 53° |
| 2026-04-23 16:17 | 28.69602 | -73.33142 | 37216 ft | 486 kts | 53° |
| 2026-04-23 16:18 | 28.73272 | -73.26652 | 37202 ft | 486 kts | 53° |
| 2026-04-23 16:18 | 28.76911 | -73.20192 | 37219 ft | 487 kts | 53° |
| 2026-04-23 16:19 | 28.80571 | -73.13667 | 37218 ft | 487 kts | 53° |
| 2026-04-23 16:19 | 28.84205 | -73.07186 | 37216 ft | 486 kts | 53° |
| 2026-04-23 16:20 | 28.87857 | -73.00672 | 37214 ft | 486 kts | 53° |
| 2026-04-23 16:20 | 28.91493 | -72.94161 | 37214 ft | 486 kts | 53° |
| 2026-04-23 16:21 | 28.95120 | -72.87672 | 37200 ft | 487 kts | 53° |
| 2026-04-23 16:21 | 28.98765 | -72.81130 | 37197 ft | 488 kts | 53° |
| 2026-04-23 16:22 | 29.02402 | -72.74591 | 37230 ft | 487 kts | 54° |
| 2026-04-23 16:22 | 29.06025 | -72.68088 | 37224 ft | 486 kts | 54° |
| 2026-04-23 16:23 | 29.09653 | -72.61552 | 37223 ft | 485 kts | 54° |
| 2026-04-23 16:23 | 29.13273 | -72.55022 | 37215 ft | 485 kts | 54° |
| 2026-04-23 16:24 | 29.16887 | -72.48494 | 37208 ft | 486 kts | 54° |
| 2026-04-23 16:24 | 29.20495 | -72.41969 | 37206 ft | 486 kts | 54° |
| 2026-04-23 16:25 | 29.24106 | -72.35409 | 37233 ft | 485 kts | 54° |
| 2026-04-23 16:25 | 29.27683 | -72.28915 | 37231 ft | 484 kts | 54° |
| 2026-04-23 16:26 | 29.31278 | -72.22379 | 37224 ft | 483 kts | 54° |
| 2026-04-23 16:26 | 29.34851 | -72.15888 | 37213 ft | 484 kts | 54° |
| 2026-04-23 16:27 | 29.38438 | -72.09331 | 37203 ft | 484 kts | 54° |
| 2026-04-23 16:27 | 29.42024 | -72.02768 | 37207 ft | 484 kts | 54° |
| 2026-04-23 16:28 | 29.45605 | -71.96212 | 37207 ft | 484 kts | 54° |
| 2026-04-23 16:28 | 29.49171 | -71.89686 | 37209 ft | 485 kts | 54° |
| 2026-04-23 16:29 | 29.52745 | -71.83115 | 37192 ft | 486 kts | 54° |
| 2026-04-23 16:29 | 29.56327 | -71.76517 | 37193 ft | 486 kts | 54° |
| 2026-04-23 16:30 | 29.59917 | -71.69911 | 37190 ft | 487 kts | 54° |
| 2026-04-23 16:30 | 29.63507 | -71.63287 | 37195 ft | 487 kts | 54° |
| 2026-04-23 16:31 | 29.67083 | -71.56673 | 37237 ft | 486 kts | 54° |
| 2026-04-23 16:31 | 29.70623 | -71.50126 | 37227 ft | 484 kts | 54° |
| 2026-04-23 16:32 | 29.74186 | -71.43539 | 37224 ft | 483 kts | 54° |
| 2026-04-23 16:32 | 29.77729 | -71.36952 | 37221 ft | 483 kts | 55° |
| 2026-04-23 16:33 | 29.81236 | -71.30412 | 37222 ft | 483 kts | 55° |
| 2026-04-23 16:33 | 29.84763 | -71.23823 | 37224 ft | 482 kts | 55° |
| 2026-04-23 16:34 | 29.88297 | -71.17239 | 37242 ft | 482 kts | 55° |
| 2026-04-23 16:34 | 29.91833 | -71.10650 | 37229 ft | 481 kts | 55° |
| 2026-04-23 16:35 | 29.95319 | -71.04128 | 37229 ft | 480 kts | 55° |
| 2026-04-23 16:35 | 29.98822 | -70.97560 | 37219 ft | 479 kts | 55° |
| 2026-04-23 16:36 | 30.02307 | -70.90996 | 37218 ft | 479 kts | 55° |
| 2026-04-23 16:36 | 30.05790 | -70.84426 | 37209 ft | 479 kts | 55° |
| 2026-04-23 16:37 | 30.09258 | -70.77902 | 37227 ft | 479 kts | 55° |
| 2026-04-23 16:37 | 30.12737 | -70.71338 | 37221 ft | 478 kts | 55° |
| 2026-04-23 16:38 | 30.16187 | -70.64806 | 37218 ft | 477 kts | 55° |
| 2026-04-23 16:38 | 30.19651 | -70.58246 | 37214 ft | 477 kts | 55° |
| 2026-04-23 16:39 | 30.23106 | -70.51686 | 37207 ft | 477 kts | 55° |
| 2026-04-23 16:39 | 30.26569 | -70.45114 | 37195 ft | 478 kts | 55° |
| 2026-04-23 16:40 | 30.30029 | -70.38538 | 37207 ft | 478 kts | 55° |
| 2026-04-23 16:40 | 30.33454 | -70.32002 | 37209 ft | 477 kts | 55° |
| 2026-04-23 16:41 | 30.36897 | -70.25416 | 37214 ft | 477 kts | 56° |
| 2026-04-23 16:41 | 30.40343 | -70.18830 | 37209 ft | 476 kts | 55° |
| 2026-04-23 16:42 | 30.43761 | -70.12288 | 37202 ft | 477 kts | 55° |
| 2026-04-23 16:42 | 30.47198 | -70.05680 | 37193 ft | 477 kts | 56° |
| 2026-04-23 16:43 | 30.50630 | -69.99083 | 37216 ft | 477 kts | 56° |
| 2026-04-23 16:43 | 30.54037 | -69.92527 | 37213 ft | 476 kts | 56° |
| 2026-04-23 16:44 | 30.57450 | -69.85945 | 37214 ft | 475 kts | 56° |
| 2026-04-23 16:44 | 30.60863 | -69.79351 | 37204 ft | 476 kts | 56° |
| 2026-04-23 16:45 | 30.64268 | -69.72752 | 37189 ft | 476 kts | 56° |
| 2026-04-23 16:45 | 30.67676 | -69.66148 | 37185 ft | 476 kts | 56° |
| 2026-04-23 16:46 | 30.71079 | -69.59535 | 37210 ft | 476 kts | 56° |
| 2026-04-23 16:46 | 30.74446 | -69.52981 | 37209 ft | 474 kts | 56° |
| 2026-04-23 16:47 | 30.77831 | -69.46373 | 37194 ft | 474 kts | 56° |
| 2026-04-23 16:47 | 30.81215 | -69.39766 | 37189 ft | 474 kts | 56° |
| 2026-04-23 16:48 | 30.84577 | -69.33205 | 37187 ft | 474 kts | 56° |
| 2026-04-23 16:48 | 30.87955 | -69.26586 | 37182 ft | 474 kts | 56° |
| 2026-04-23 16:49 | 30.91322 | -69.19961 | 37195 ft | 474 kts | 56° |
| 2026-04-23 16:49 | 30.94688 | -69.13351 | 37184 ft | 474 kts | 56° |
| 2026-04-23 16:50 | 30.98041 | -69.06763 | 37177 ft | 474 kts | 56° |
| 2026-04-23 16:50 | 31.00841 | -69.01242 | 37175 ft | 474 kts | 56° |
| 2026-04-23 16:51 | 31.04193 | -68.94615 | 37176 ft | 474 kts | 56° |
| 2026-04-23 16:51 | 31.07553 | -68.87977 | 37173 ft | 474 kts | 56° |
| 2026-04-23 16:52 | 31.10913 | -68.81315 | 37193 ft | 475 kts | 56° |
| 2026-04-23 16:52 | 31.14249 | -68.74671 | 37191 ft | 474 kts | 56° |
| 2026-04-23 16:53 | 31.17595 | -68.68006 | 37185 ft | 474 kts | 56° |
| 2026-04-23 16:53 | 31.20937 | -68.61364 | 37182 ft | 474 kts | 56° |
| 2026-04-23 16:54 | 31.24247 | -68.54760 | 37180 ft | 474 kts | 56° |
| 2026-04-23 16:54 | 31.27576 | -68.48094 | 37171 ft | 474 kts | 56° |
| 2026-04-23 16:55 | 31.30907 | -68.41431 | 37196 ft | 475 kts | 56° |
| 2026-04-23 16:55 | 31.34238 | -68.34757 | 37194 ft | 474 kts | 56° |
| 2026-04-23 16:56 | 31.37533 | -68.28121 | 37191 ft | 474 kts | 56° |
| 2026-04-23 16:56 | 31.40838 | -68.21447 | 37188 ft | 473 kts | 56° |
| 2026-04-23 16:57 | 31.44141 | -68.14797 | 37177 ft | 474 kts | 56° |
| 2026-04-23 16:57 | 31.47470 | -68.08069 | 37167 ft | 474 kts | 57° |
| 2026-04-23 16:58 | 31.49891 | -68.00877 | 37163 ft | 480 kts | 70° |
| 2026-04-23 16:58 | 31.51921 | -67.93396 | 37163 ft | 480 kts | 69° |
| 2026-04-23 16:59 | 31.53945 | -67.85966 | 37164 ft | 480 kts | 69° |
| 2026-04-23 16:59 | 31.55974 | -67.78507 | 37162 ft | 481 kts | 69° |
| 2026-04-23 17:00 | 31.57996 | -67.71014 | 37167 ft | 481 kts | 70° |
| 2026-04-23 17:00 | 31.60011 | -67.63524 | 37170 ft | 481 kts | 70° |
| 2026-04-23 17:01 | 31.62028 | -67.56027 | 37172 ft | 481 kts | 70° |
| 2026-04-23 17:01 | 31.64023 | -67.48589 | 37179 ft | 481 kts | 69° |
| 2026-04-23 17:02 | 31.66033 | -67.41082 | 37174 ft | 481 kts | 70° |
| 2026-04-23 17:02 | 31.68038 | -67.33576 | 37171 ft | 481 kts | 70° |
| 2026-04-23 17:03 | 31.70026 | -67.26097 | 37164 ft | 481 kts | 70° |
| 2026-04-23 17:03 | 31.72017 | -67.18590 | 37164 ft | 481 kts | 70° |
| 2026-04-23 17:04 | 31.73997 | -67.11101 | 37155 ft | 482 kts | 70° |
| 2026-04-23 17:04 | 31.75988 | -67.03573 | 37151 ft | 482 kts | 70° |
| 2026-04-23 17:05 | 31.77975 | -66.96020 | 37155 ft | 482 kts | 70° |
| 2026-04-23 17:05 | 31.79939 | -66.88518 | 37182 ft | 482 kts | 70° |
| 2026-04-23 17:06 | 31.81906 | -66.80987 | 37167 ft | 482 kts | 70° |
| 2026-04-23 17:06 | 31.83879 | -66.73437 | 37159 ft | 482 kts | 70° |
| 2026-04-23 17:07 | 31.85847 | -66.65891 | 37153 ft | 482 kts | 70° |
| 2026-04-23 17:07 | 31.87807 | -66.58365 | 37143 ft | 483 kts | 70° |
| 2026-04-23 17:08 | 31.89772 | -66.50804 | 37144 ft | 483 kts | 70° |
| 2026-04-23 17:08 | 31.91737 | -66.43227 | 37143 ft | 484 kts | 70° |
| 2026-04-23 17:09 | 31.93692 | -66.35625 | 37162 ft | 484 kts | 70° |
| 2026-04-23 17:09 | 31.95634 | -66.28025 | 37159 ft | 484 kts | 70° |
| 2026-04-23 17:10 | 31.97562 | -66.20467 | 37147 ft | 484 kts | 70° |
| 2026-04-23 17:10 | 31.99512 | -66.12839 | 37138 ft | 485 kts | 70° |
| 2026-04-23 17:11 | 32.01454 | -66.05213 | 37139 ft | 485 kts | 70° |
| 2026-04-23 17:11 | 32.03378 | -65.97623 | 37138 ft | 485 kts | 70° |
| 2026-04-23 17:12 | 32.05310 | -65.89999 | 37136 ft | 486 kts | 70° |
| 2026-04-23 17:12 | 32.07245 | -65.82353 | 37158 ft | 486 kts | 70° |
| 2026-04-23 17:13 | 32.09174 | -65.74702 | 37154 ft | 486 kts | 70° |
| 2026-04-23 17:13 | 32.11095 | -65.67050 | 36885 ft | 487 kts | 70° |
| 2026-04-23 17:14 | 32.11988 | -65.63165 | 35733 ft | 499 kts | 78° |
| 2026-04-23 17:14 | 32.12440 | -65.59072 | 34711 ft | 505 kts | 81° |
| 2026-04-23 17:14 | 32.12846 | -65.54947 | 33788 ft | 506 kts | 81° |
| 2026-04-23 17:14 | 32.13238 | -65.50881 | 32864 ft | 504 kts | 81° |
| 2026-04-23 17:15 | 32.13632 | -65.46782 | 31959 ft | 501 kts | 81° |
| 2026-04-23 17:15 | 32.14024 | -65.42713 | 31083 ft | 497 kts | 81° |
| 2026-04-23 17:15 | 32.14414 | -65.38678 | 30235 ft | 494 kts | 81° |
| 2026-04-23 17:15 | 32.14801 | -65.34671 | 29262 ft | 489 kts | 81° |
| 2026-04-23 17:16 | 32.15196 | -65.30606 | 28291 ft | 484 kts | 81° |
| 2026-04-23 17:16 | 32.15586 | -65.26606 | 27370 ft | 479 kts | 81° |
| 2026-04-23 17:16 | 32.15958 | -65.22769 | 26488 ft | 474 kts | 81° |
| 2026-04-23 17:16 | 32.16328 | -65.18900 | 25623 ft | 469 kts | 81° |
| 2026-04-23 17:17 | 32.16684 | -65.15132 | 24795 ft | 464 kts | 81° |
| 2026-04-23 17:17 | 32.17036 | -65.11391 | 23999 ft | 459 kts | 81° |
| 2026-04-23 17:17 | 32.17279 | -65.08823 | 23396 ft | 456 kts | 81° |
| 2026-04-23 17:17 | 32.17739 | -65.03931 | 22058 ft | 449 kts | 81° |
| 2026-04-23 17:18 | 32.18407 | -64.96753 | 20082 ft | 432 kts | 82° |
| 2026-04-23 17:18 | 32.18295 | -64.93229 | 19149 ft | 430 kts | 100° |
| 2026-04-23 17:18 | 32.17513 | -64.89835 | 18216 ft | 425 kts | 105° |
| 2026-04-23 17:19 | 32.16651 | -64.86517 | 17182 ft | 420 kts | 105° |
| 2026-04-23 17:19 | 32.15796 | -64.83251 | 16177 ft | 414 kts | 105° |
| 2026-04-23 17:19 | 32.14955 | -64.80035 | 15220 ft | 408 kts | 105° |
| 2026-04-23 17:19 | 32.14127 | -64.76865 | 14288 ft | 401 kts | 105° |
| 2026-04-23 17:20 | 32.13660 | -64.73673 | 13292 ft | 391 kts | 89° |
| 2026-04-23 17:20 | 32.14911 | -64.67768 | 11740 ft | 359 kts | 60° |
| 2026-04-23 17:21 | 32.16842 | -64.63041 | 10533 ft | 342 kts | 60° |
| 2026-04-23 17:21 | 32.17478 | -64.61491 | 10139 ft | 337 kts | 60° |
| 2026-04-23 17:21 | 32.19496 | -64.56595 | 8737 ft | 326 kts | 61° |
| 2026-04-23 17:22 | 32.20485 | -64.54202 | 8049 ft | 322 kts | 61° |
| 2026-04-23 17:22 | 32.22573 | -64.49649 | 6857 ft | 304 kts | 44° |
| 2026-04-23 17:23 | 32.25443 | -64.47743 | 6151 ft | 276 kts | 9° |
| 2026-04-23 17:23 | 32.27259 | -64.47515 | 6070 ft | 250 kts | 354° |
| 2026-04-23 17:23 | 32.30514 | -64.48503 | 5041 ft | 240 kts | 327° |
| 2026-04-23 17:24 | 32.31871 | -64.49636 | 4479 ft | 238 kts | 314° |
| 2026-04-23 17:24 | 32.32950 | -64.51093 | 3922 ft | 235 kts | 301° |
| 2026-04-23 17:24 | 32.34067 | -64.54629 | 2813 ft | 230 kts | 277° |
| 2026-04-23 17:25 | 32.34062 | -64.58257 | 1704 ft | 225 kts | 239° |
| 2026-04-23 17:25 | 32.32945 | -64.59454 | 1485 ft | 213 kts | 205° |
| 2026-04-23 17:26 | 32.30142 | -64.58684 | 1472 ft | 234 kts | 135° |
| 2026-04-23 17:26 | 32.29650 | -64.55051 | 1480 ft | 241 kts | 61° |
| 2026-04-23 17:27 | 32.32366 | -64.53373 | 1474 ft | 228 kts | 341° |
| 2026-04-23 17:27 | 32.33705 | -64.54235 | 1472 ft | 216 kts | 310° |
| 2026-04-23 17:27 | 32.34425 | -64.55751 | 1459 ft | 208 kts | 279° |
| 2026-04-23 17:27 | 32.34627 | -64.57435 | 1451 ft | 207 kts | 274° |
| 2026-04-23 17:28 | 32.34854 | -64.59137 | 1456 ft | 210 kts | 276° |
| 2026-04-23 17:28 | 32.35143 | -64.60822 | 1305 ft | 207 kts | 278° |
| 2026-04-23 17:28 | 32.35477 | -64.62432 | 952 ft | 195 kts | 280° |
| 2026-04-23 17:28 | 32.35727 | -64.63966 | 589 ft | 185 kts | 278° |
| 2026-04-23 17:29 | 32.35981 | -64.65371 | 554 ft | 167 kts | 279° |
| 2026-04-23 17:29 | 32.36225 | -64.66768 | 1232 ft | 175 kts | 277° |
| 2026-04-23 17:29 | 32.36644 | -64.69631 | 2783 ft | 183 kts | 268° |
| 2026-04-23 17:30 | 32.36189 | -64.71048 | 2937 ft | 192 kts | 232° |
| 2026-04-23 17:30 | 32.33609 | -64.71669 | 2970 ft | 213 kts | 161° |
| 2026-04-23 17:30 | 32.32430 | -64.70431 | 2960 ft | 241 kts | 124° |
| 2026-04-23 17:31 | 32.31803 | -64.68557 | 2979 ft | 249 kts | 107° |
| 2026-04-23 17:31 | 32.31361 | -64.66595 | 2979 ft | 249 kts | 106° |
| 2026-04-23 17:31 | 32.30938 | -64.64610 | 2980 ft | 249 kts | 105° |
| 2026-04-23 17:31 | 32.30523 | -64.62633 | 2692 ft | 246 kts | 106° |
| 2026-04-23 17:32 | 32.30132 | -64.60683 | 2229 ft | 241 kts | 105° |
| 2026-04-23 17:32 | 32.29749 | -64.58800 | 1925 ft | 231 kts | 106° |
| 2026-04-23 17:32 | 32.29407 | -64.56969 | 1530 ft | 227 kts | 97° |
| 2026-04-23 17:32 | 32.29712 | -64.55190 | 1487 ft | 223 kts | 59° |
| 2026-04-23 17:33 | 32.30798 | -64.53929 | 1486 ft | 217 kts | 21° |
| 2026-04-23 17:33 | 32.32197 | -64.53628 | 1475 ft | 198 kts | 347° |
| 2026-04-23 17:33 | 32.33412 | -64.54196 | 1477 ft | 182 kts | 316° |
| 2026-04-23 17:33 | 32.34181 | -64.55324 | 1472 ft | 175 kts | 289° |
| 2026-04-23 17:34 | 32.34459 | -64.56620 | 1474 ft | 151 kts | 277° |
| 2026-04-23 17:34 | 32.34662 | -64.57777 | 1403 ft | 139 kts | 276° |
| 2026-04-23 17:34 | 32.35037 | -64.59945 | 1106 ft | 132 kts | 276° |
| 2026-04-23 17:35 | 32.35220 | -64.61001 | 945 ft | 131 kts | 276° |
| 2026-04-23 17:35 | 32.35585 | -64.63119 | 610 ft | 132 kts | 279° |
| 2026-04-23 17:35 | 32.35770 | -64.64183 | 443 ft | 132 kts | 280° |
| 2026-04-23 17:36 | 32.35961 | -64.65248 | 260 ft | 131 kts | 278° |
| 2026-04-23 17:36 | 32.36135 | -64.66290 | 70 ft | 128 kts | 277° |
| 2026-04-23 17:36 | 32.36296 | -64.67250 | 25 ft | 105 kts | 281° |
| 2026-04-23 17:36 | 32.36406 | -64.67895 | 28 ft | 58 kts | 281° |
| 2026-04-23 17:37 | 32.36489 | -64.68362 | 29 ft | 61 kts | 281° |
| 2026-04-23 17:37 | 32.36559 | -64.68644 | 28 ft | 25 kts | 332° |
| 2026-04-23 17:37 | 32.36648 | -64.68471 | 27 ft | 19 kts | 102° |
| 2026-04-23 17:38 | 32.36622 | -64.68316 | 27 ft | 21 kts | 101° |
| 2026-04-23 17:38 | 32.36592 | -64.68145 | 27 ft | 22 kts | 102° |
| 2026-04-23 17:38 | 32.36561 | -64.67966 | 27 ft | 21 kts | 101° |
| 2026-04-23 17:38 | 32.36538 | -64.67825 | 27 ft | 16 kts | 101° |
| 2026-04-23 17:39 | 32.36514 | -64.67691 | 27 ft | 17 kts | 101° |
| 2026-04-23 17:39 | 32.36490 | -64.67544 | 27 ft | 19 kts | 101° |
| 2026-04-23 17:39 | 32.36462 | -64.67389 | 27 ft | 20 kts | 100° |
| 2026-04-23 17:39 | 32.36434 | -64.67225 | 27 ft | 20 kts | 101° |
| 2026-04-23 17:40 | 32.36405 | -64.67073 | 27 ft | 18 kts | 104° |
| 2026-04-23 17:40 | 32.36462 | -64.66974 | 27 ft | 17 kts | 43° |
| 2026-04-23 17:40 | 32.36463 | -64.66841 | 27 ft | 17 kts | 106° |
| 2026-04-23 17:40 | 32.36371 | -64.66813 | 27 ft | 17 kts | 231° |
| 2026-04-23 17:41 | 32.36386 | -64.66957 | 27 ft | 20 kts | 279° |
| 2026-04-23 17:41 | 32.36457 | -64.67361 | 27 ft | 30 kts | 281° |
| 2026-04-23 17:41 | 32.36493 | -64.67574 | 27 ft | 25 kts | 282° |
| 2026-04-23 17:42 | 32.36569 | -64.68006 | 27 ft | 29 kts | 282° |
| 2026-04-23 17:42 | 32.36615 | -64.68251 | 27 ft | 32 kts | 280° |
| 2026-04-23 17:42 | 32.36652 | -64.68492 | 27 ft | 28 kts | 282° |
| 2026-04-23 17:43 | 32.36689 | -64.68700 | 27 ft | 23 kts | 280° |
| 2026-04-23 17:43 | 32.36716 | -64.68860 | 30 ft | 14 kts | 279° |
| 2026-04-23 17:43 | 32.36685 | -64.68978 | 27 ft | 18 kts | 246° |
| 2026-04-23 17:43 | 32.36631 | -64.69126 | 28 ft | 21 kts | 248° |
| 2026-04-23 17:44 | 32.36572 | -64.69294 | 28 ft | 24 kts | 247° |
| 2026-04-23 17:44 | 32.36500 | -64.69497 | 27 ft | 29 kts | 247° |
| 2026-04-23 17:44 | 32.36326 | -64.69989 | 25 ft | 30 kts | 246° |
| 2026-04-23 17:45 | 32.36274 | -64.70138 | 24 ft | 13 kts | 246° |
| 2026-04-23 17:45 | 32.36224 | -64.70270 | 24 ft | 8 kts | 247° |
| 2026-04-23 17:45 | 32.36215 | -64.70294 | 26 ft | 0 kts | 247° |